AWG136Z LROP-LRIA
Flight info
| Callsign | AWG136Z |
|---|---|
| Flight time | 0h 38m |
| Altitude | 25000 |
| Route | DENAK1K/08L DENAK DCT GUXVA T74 ABOLO |
| Aircraft | A320/M-SDFGHIRWY/LB1 |
Departure
| Time | 2026-05-06 17:03 |
|---|---|
| Airport | Bucharest Henri Coandă International Airport (LROP) |
Arrival
| Time | 2026-05-06 17:42 |
|---|---|
| Airport | Iaşi International Airport (LRIA) |
| Time | Latitude | Longitude | Altitude | Speed | Heading |
|---|---|---|---|---|---|
| 2026-05-06 16:39 | 44.57020 | 26.08134 | 323 ft | 0 kts | 354° |
| 2026-05-06 16:55 | 44.57008 | 26.08135 | 323 ft | 3 kts | 356° |
| 2026-05-06 16:56 | 44.56987 | 26.08136 | 323 ft | 3 kts | 1° |
| 2026-05-06 16:56 | 44.56967 | 26.08134 | 320 ft | 3 kts | 11° |
| 2026-05-06 16:56 | 44.56949 | 26.08127 | 320 ft | 3 kts | 30° |
| 2026-05-06 16:56 | 44.56936 | 26.08112 | 319 ft | 2 kts | 74° |
| 2026-05-06 16:57 | 44.56934 | 26.08101 | 319 ft | 1 kts | 84° |
| 2026-05-06 16:57 | 44.56934 | 26.08099 | 319 ft | 0 kts | 84° |
| 2026-05-06 16:59 | 44.56937 | 26.08138 | 320 ft | 9 kts | 84° |
| 2026-05-06 16:59 | 44.56945 | 26.08245 | 323 ft | 12 kts | 84° |
| 2026-05-06 16:59 | 44.56954 | 26.08357 | 323 ft | 8 kts | 77° |
| 2026-05-06 17:00 | 44.57008 | 26.08389 | 320 ft | 10 kts | 357° |
| 2026-05-06 17:00 | 44.57087 | 26.08377 | 321 ft | 13 kts | 354° |
| 2026-05-06 17:00 | 44.57181 | 26.08363 | 321 ft | 11 kts | 353° |
| 2026-05-06 17:00 | 44.57228 | 26.08405 | 322 ft | 10 kts | 85° |
| 2026-05-06 17:01 | 44.57255 | 26.08502 | 323 ft | 11 kts | 14° |
| 2026-05-06 17:01 | 44.57341 | 26.08489 | 323 ft | 14 kts | 354° |
| 2026-05-06 17:01 | 44.57444 | 26.08474 | 323 ft | 16 kts | 354° |
| 2026-05-06 17:01 | 44.57564 | 26.08457 | 323 ft | 17 kts | 354° |
| 2026-05-06 17:02 | 44.57652 | 26.08450 | 323 ft | 8 kts | 11° |
| 2026-05-06 17:02 | 44.57667 | 26.08496 | 324 ft | 0 kts | 87° |
| 2026-05-06 17:02 | 44.57669 | 26.08520 | 324 ft | 10 kts | 85° |
| 2026-05-06 17:03 | 44.57700 | 26.08938 | 321 ft | 79 kts | 84° |
| 2026-05-06 17:03 | 44.57778 | 26.09984 | 323 ft | 134 kts | 84° |
| 2026-05-06 17:03 | 44.57883 | 26.11442 | 619 ft | 154 kts | 85° |
| 2026-05-06 17:03 | 44.58001 | 26.12941 | 1228 ft | 154 kts | 87° |
| 2026-05-06 17:04 | 44.58117 | 26.14443 | 1807 ft | 156 kts | 88° |
| 2026-05-06 17:04 | 44.58233 | 26.15962 | 2373 ft | 157 kts | 87° |
| 2026-05-06 17:04 | 44.58309 | 26.16977 | 2744 ft | 159 kts | 87° |
| 2026-05-06 17:04 | 44.58426 | 26.18526 | 3299 ft | 161 kts | 88° |
| 2026-05-06 17:05 | 44.58542 | 26.20133 | 3688 ft | 176 kts | 84° |
| 2026-05-06 17:05 | 44.58923 | 26.21856 | 4040 ft | 197 kts | 58° |
| 2026-05-06 17:05 | 44.59989 | 26.23173 | 4337 ft | 221 kts | 24° |
| 2026-05-06 17:05 | 44.61500 | 26.24022 | 4742 ft | 246 kts | 20° |
| 2026-05-06 17:06 | 44.63180 | 26.24882 | 5323 ft | 264 kts | 19° |
| 2026-05-06 17:06 | 44.64934 | 26.25755 | 6231 ft | 269 kts | 19° |
| 2026-05-06 17:06 | 44.66712 | 26.26632 | 7167 ft | 271 kts | 19° |
| 2026-05-06 17:06 | 44.68501 | 26.27516 | 8098 ft | 274 kts | 19° |
| 2026-05-06 17:07 | 44.70305 | 26.28415 | 9039 ft | 276 kts | 19° |
| 2026-05-06 17:07 | 44.72122 | 26.29324 | 9975 ft | 278 kts | 19° |
| 2026-05-06 17:07 | 44.73984 | 26.30258 | 10465 ft | 295 kts | 19° |
| 2026-05-06 17:07 | 44.75989 | 26.31267 | 10811 ft | 314 kts | 19° |
| 2026-05-06 17:08 | 44.78073 | 26.32318 | 11456 ft | 321 kts | 19° |
| 2026-05-06 17:08 | 44.80191 | 26.33389 | 12175 ft | 326 kts | 19° |
| 2026-05-06 17:08 | 44.82344 | 26.34478 | 12859 ft | 332 kts | 19° |
| 2026-05-06 17:08 | 44.84534 | 26.35589 | 13574 ft | 337 kts | 19° |
| 2026-05-06 17:09 | 44.86750 | 26.36712 | 14258 ft | 340 kts | 19° |
| 2026-05-06 17:09 | 44.88987 | 26.37844 | 14931 ft | 344 kts | 19° |
| 2026-05-06 17:09 | 44.91250 | 26.38991 | 15560 ft | 348 kts | 19° |
| 2026-05-06 17:09 | 44.93539 | 26.40155 | 16202 ft | 351 kts | 19° |
| 2026-05-06 17:10 | 44.95844 | 26.41330 | 16856 ft | 355 kts | 19° |
| 2026-05-06 17:10 | 44.98179 | 26.42520 | 17467 ft | 359 kts | 19° |
| 2026-05-06 17:10 | 45.00551 | 26.43676 | 18119 ft | 362 kts | 15° |
| 2026-05-06 17:10 | 45.03006 | 26.44545 | 18731 ft | 365 kts | 13° |
| 2026-05-06 17:11 | 45.05482 | 26.45410 | 19325 ft | 368 kts | 13° |
| 2026-05-06 17:11 | 45.07977 | 26.46287 | 19958 ft | 371 kts | 13° |
| 2026-05-06 17:11 | 45.10486 | 26.47172 | 20598 ft | 373 kts | 13° |
| 2026-05-06 17:11 | 45.13009 | 26.48065 | 21208 ft | 375 kts | 13° |
| 2026-05-06 17:12 | 45.15549 | 26.48962 | 21828 ft | 377 kts | 13° |
| 2026-05-06 17:12 | 45.18100 | 26.49864 | 22424 ft | 379 kts | 13° |
| 2026-05-06 17:12 | 45.20668 | 26.50774 | 23032 ft | 382 kts | 13° |
| 2026-05-06 17:12 | 45.23253 | 26.51690 | 23628 ft | 384 kts | 13° |
| 2026-05-06 17:13 | 45.25853 | 26.52611 | 24136 ft | 386 kts | 13° |
| 2026-05-06 17:13 | 45.28467 | 26.53535 | 24633 ft | 388 kts | 13° |
| 2026-05-06 17:13 | 45.31097 | 26.54464 | 24949 ft | 390 kts | 13° |
| 2026-05-06 17:13 | 45.33734 | 26.55397 | 25147 ft | 392 kts | 13° |
| 2026-05-06 17:14 | 45.36385 | 26.56342 | 25644 ft | 394 kts | 13° |
| 2026-05-06 17:14 | 45.39046 | 26.57290 | 26132 ft | 395 kts | 12° |
| 2026-05-06 17:14 | 45.41722 | 26.58245 | 26598 ft | 397 kts | 12° |
| 2026-05-06 17:14 | 45.44408 | 26.59207 | 26959 ft | 399 kts | 12° |
| 2026-05-06 17:15 | 45.47085 | 26.60168 | 27037 ft | 391 kts | 13° |
| 2026-05-06 17:15 | 45.49676 | 26.61102 | 27043 ft | 379 kts | 13° |
| 2026-05-06 17:15 | 45.52217 | 26.62014 | 27032 ft | 375 kts | 12° |
| 2026-05-06 17:15 | 45.54751 | 26.62919 | 27043 ft | 375 kts | 12° |
| 2026-05-06 17:16 | 45.57280 | 26.63823 | 27039 ft | 374 kts | 12° |
| 2026-05-06 17:16 | 45.59805 | 26.64724 | 27040 ft | 374 kts | 12° |
| 2026-05-06 17:16 | 45.62298 | 26.65614 | 27034 ft | 375 kts | 12° |
| 2026-05-06 17:16 | 45.64859 | 26.66533 | 27035 ft | 375 kts | 12° |
| 2026-05-06 17:17 | 45.67356 | 26.67431 | 27036 ft | 375 kts | 12° |
| 2026-05-06 17:17 | 45.69884 | 26.68344 | 27033 ft | 375 kts | 12° |
| 2026-05-06 17:17 | 45.72413 | 26.69261 | 27032 ft | 375 kts | 12° |
| 2026-05-06 17:17 | 45.74943 | 26.70174 | 27036 ft | 375 kts | 12° |
| 2026-05-06 17:18 | 45.77472 | 26.71087 | 27031 ft | 375 kts | 12° |
| 2026-05-06 17:18 | 45.80000 | 26.72001 | 27040 ft | 375 kts | 12° |
| 2026-05-06 17:18 | 45.82532 | 26.72919 | 27040 ft | 375 kts | 12° |
| 2026-05-06 17:18 | 45.85060 | 26.73839 | 27041 ft | 375 kts | 12° |
| 2026-05-06 17:19 | 45.87592 | 26.74759 | 27038 ft | 375 kts | 13° |
| 2026-05-06 17:19 | 45.90125 | 26.75678 | 27039 ft | 376 kts | 13° |
| 2026-05-06 17:19 | 45.92661 | 26.76596 | 27040 ft | 376 kts | 13° |
| 2026-05-06 17:19 | 45.95198 | 26.77517 | 27032 ft | 376 kts | 13° |
| 2026-05-06 17:20 | 45.97735 | 26.78438 | 27035 ft | 376 kts | 13° |
| 2026-05-06 17:20 | 46.00275 | 26.79363 | 27035 ft | 376 kts | 13° |
| 2026-05-06 17:20 | 46.02812 | 26.80286 | 27028 ft | 376 kts | 13° |
| 2026-05-06 17:20 | 46.05384 | 26.81220 | 27029 ft | 376 kts | 13° |
| 2026-05-06 17:21 | 46.07922 | 26.82146 | 27033 ft | 376 kts | 13° |
| 2026-05-06 17:21 | 46.10460 | 26.83077 | 27026 ft | 377 kts | 13° |
| 2026-05-06 17:21 | 46.12998 | 26.84010 | 27023 ft | 377 kts | 13° |
| 2026-05-06 17:21 | 46.15503 | 26.84931 | 27023 ft | 376 kts | 13° |
| 2026-05-06 17:22 | 46.18010 | 26.85854 | 26934 ft | 367 kts | 13° |
| 2026-05-06 17:22 | 46.20469 | 26.86758 | 26613 ft | 362 kts | 13° |
| 2026-05-06 17:22 | 46.22905 | 26.87652 | 26229 ft | 360 kts | 13° |
| 2026-05-06 17:22 | 46.25329 | 26.88538 | 25827 ft | 359 kts | 13° |
| 2026-05-06 17:23 | 46.27740 | 26.89422 | 25417 ft | 357 kts | 13° |
| 2026-05-06 17:23 | 46.30146 | 26.90306 | 25018 ft | 356 kts | 13° |
| 2026-05-06 17:23 | 46.32537 | 26.91187 | 24621 ft | 354 kts | 13° |
| 2026-05-06 17:23 | 46.34917 | 26.92064 | 24226 ft | 352 kts | 13° |
| 2026-05-06 17:24 | 46.37284 | 26.92939 | 23854 ft | 350 kts | 13° |
| 2026-05-06 17:24 | 46.39635 | 26.93809 | 23442 ft | 348 kts | 14° |
| 2026-05-06 17:24 | 46.41980 | 26.94676 | 22975 ft | 347 kts | 13° |
| 2026-05-06 17:24 | 46.44305 | 26.95541 | 22543 ft | 344 kts | 14° |
| 2026-05-06 17:25 | 46.46618 | 26.96405 | 22097 ft | 342 kts | 14° |
| 2026-05-06 17:25 | 46.48918 | 26.97260 | 21636 ft | 341 kts | 14° |
| 2026-05-06 17:25 | 46.51207 | 26.98109 | 21241 ft | 339 kts | 14° |
| 2026-05-06 17:25 | 46.53478 | 26.98953 | 20843 ft | 336 kts | 14° |
| 2026-05-06 17:26 | 46.55743 | 26.99794 | 20395 ft | 336 kts | 14° |
| 2026-05-06 17:26 | 46.58003 | 27.00634 | 19970 ft | 335 kts | 14° |
| 2026-05-06 17:26 | 46.60252 | 27.01474 | 19578 ft | 333 kts | 15° |
| 2026-05-06 17:26 | 46.62493 | 27.02311 | 19157 ft | 332 kts | 14° |
| 2026-05-06 17:27 | 46.64732 | 27.03142 | 18736 ft | 332 kts | 15° |
| 2026-05-06 17:27 | 46.66965 | 27.03970 | 18350 ft | 331 kts | 15° |
| 2026-05-06 17:27 | 46.69197 | 27.04802 | 17802 ft | 331 kts | 16° |
| 2026-05-06 17:27 | 46.71409 | 27.05630 | 17189 ft | 327 kts | 15° |
| 2026-05-06 17:28 | 46.73589 | 27.06493 | 16591 ft | 323 kts | 20° |
| 2026-05-06 17:28 | 46.75603 | 27.07860 | 16008 ft | 317 kts | 33° |
| 2026-05-06 17:28 | 46.77405 | 27.09688 | 15423 ft | 315 kts | 37° |
| 2026-05-06 17:28 | 46.79184 | 27.11545 | 14869 ft | 315 kts | 36° |
| 2026-05-06 17:29 | 46.80965 | 27.13399 | 14311 ft | 312 kts | 36° |
| 2026-05-06 17:29 | 46.82718 | 27.15224 | 13753 ft | 307 kts | 36° |
| 2026-05-06 17:29 | 46.84447 | 27.17024 | 13153 ft | 303 kts | 36° |
| 2026-05-06 17:29 | 46.86158 | 27.18802 | 12536 ft | 299 kts | 35° |
| 2026-05-06 17:30 | 46.87843 | 27.20554 | 11877 ft | 296 kts | 35° |
| 2026-05-06 17:30 | 46.89515 | 27.22295 | 11213 ft | 294 kts | 34° |
| 2026-05-06 17:30 | 46.91168 | 27.24020 | 10589 ft | 290 kts | 34° |
| 2026-05-06 17:30 | 46.92801 | 27.25728 | 9961 ft | 288 kts | 35° |
| 2026-05-06 17:31 | 46.94412 | 27.27418 | 9350 ft | 283 kts | 34° |
| 2026-05-06 17:31 | 46.96005 | 27.29090 | 8709 ft | 281 kts | 34° |
| 2026-05-06 17:31 | 46.97591 | 27.30754 | 8057 ft | 280 kts | 34° |
| 2026-05-06 17:31 | 46.99250 | 27.32271 | 7605 ft | 282 kts | 25° |
| 2026-05-06 17:32 | 47.01095 | 27.33196 | 7263 ft | 281 kts | 11° |
| 2026-05-06 17:32 | 47.03033 | 27.33493 | 6899 ft | 281 kts | 1° |
| 2026-05-06 17:32 | 47.04988 | 27.33609 | 6552 ft | 281 kts | 2° |
| 2026-05-06 17:32 | 47.06945 | 27.33731 | 6204 ft | 281 kts | 2° |
| 2026-05-06 17:33 | 47.08898 | 27.33855 | 5823 ft | 281 kts | 2° |
| 2026-05-06 17:33 | 47.10851 | 27.33980 | 5446 ft | 281 kts | 3° |
| 2026-05-06 17:33 | 47.12814 | 27.34107 | 5060 ft | 283 kts | 2° |
| 2026-05-06 17:33 | 47.14767 | 27.34231 | 4978 ft | 281 kts | 2° |
| 2026-05-06 17:34 | 47.16728 | 27.34355 | 4975 ft | 282 kts | 2° |
| 2026-05-06 17:34 | 47.18703 | 27.34479 | 4977 ft | 285 kts | 2° |
| 2026-05-06 17:34 | 47.20690 | 27.34604 | 4977 ft | 288 kts | 2° |
| 2026-05-06 17:34 | 47.22677 | 27.34730 | 4972 ft | 281 kts | 2° |
| 2026-05-06 17:35 | 47.24581 | 27.34850 | 4975 ft | 267 kts | 2° |
| 2026-05-06 17:35 | 47.26392 | 27.34961 | 4972 ft | 254 kts | 2° |
| 2026-05-06 17:35 | 47.28100 | 27.35067 | 4973 ft | 238 kts | 2° |
| 2026-05-06 17:36 | 47.31062 | 27.36185 | 4969 ft | 214 kts | 40° |
| 2026-05-06 17:36 | 47.32047 | 27.37768 | 4974 ft | 208 kts | 64° |
| 2026-05-06 17:36 | 47.32555 | 27.39740 | 4939 ft | 207 kts | 79° |
| 2026-05-06 17:36 | 47.32928 | 27.41808 | 4630 ft | 209 kts | 79° |
| 2026-05-06 17:37 | 47.33305 | 27.43855 | 4329 ft | 210 kts | 77° |
| 2026-05-06 17:37 | 47.33633 | 27.45946 | 4036 ft | 208 kts | 92° |
| 2026-05-06 17:37 | 47.33311 | 27.47941 | 3751 ft | 198 kts | 126° |
| 2026-05-06 17:37 | 47.32354 | 27.49322 | 3499 ft | 191 kts | 152° |
| 2026-05-06 17:38 | 47.31227 | 27.50316 | 3265 ft | 187 kts | 151° |
| 2026-05-06 17:38 | 47.30124 | 27.51299 | 3005 ft | 184 kts | 151° |
| 2026-05-06 17:38 | 47.29041 | 27.52263 | 2758 ft | 179 kts | 152° |
| 2026-05-06 17:38 | 47.28015 | 27.53184 | 2512 ft | 166 kts | 153° |
| 2026-05-06 17:39 | 47.27081 | 27.54025 | 2320 ft | 146 kts | 154° |
| 2026-05-06 17:39 | 47.26245 | 27.54777 | 2129 ft | 136 kts | 154° |
| 2026-05-06 17:39 | 47.25449 | 27.55489 | 1954 ft | 133 kts | 155° |
| 2026-05-06 17:39 | 47.24660 | 27.56191 | 1779 ft | 132 kts | 152° |
| 2026-05-06 17:40 | 47.23880 | 27.56890 | 1573 ft | 131 kts | 154° |
| 2026-05-06 17:40 | 47.23107 | 27.57589 | 1368 ft | 132 kts | 152° |
| 2026-05-06 17:40 | 47.22316 | 27.58273 | 1220 ft | 131 kts | 152° |
| 2026-05-06 17:40 | 47.21534 | 27.58956 | 1088 ft | 132 kts | 148° |
| 2026-05-06 17:41 | 47.20757 | 27.59678 | 908 ft | 131 kts | 149° |
| 2026-05-06 17:41 | 47.19989 | 27.60379 | 728 ft | 130 kts | 153° |
| 2026-05-06 17:41 | 47.19209 | 27.61048 | 523 ft | 130 kts | 152° |
| 2026-05-06 17:41 | 47.18462 | 27.61708 | 394 ft | 110 kts | 150° |
| 2026-05-06 17:42 | 47.17951 | 27.62159 | 372 ft | 61 kts | 148° |
| 2026-05-06 17:42 | 47.17712 | 27.62374 | 362 ft | 33 kts | 149° |
| 2026-05-06 17:42 | 47.17512 | 27.62551 | 357 ft | 34 kts | 148° |
| 2026-05-06 17:42 | 47.17383 | 27.62632 | 348 ft | 14 kts | 199° |
| 2026-05-06 17:43 | 47.17329 | 27.62530 | 355 ft | 11 kts | 229° |
| 2026-05-06 17:43 | 47.17292 | 27.62449 | 359 ft | 10 kts | 239° |
| 2026-05-06 17:43 | 47.17262 | 27.62352 | 364 ft | 9 kts | 268° |
| 2026-05-06 17:43 | 47.17280 | 27.62299 | 369 ft | 2 kts | 311° |
| 2026-05-06 17:44 | 47.17306 | 27.62270 | 372 ft | 7 kts | 326° |
| 2026-05-06 17:44 | 47.17356 | 27.62225 | 373 ft | 11 kts | 329° |
| 2026-05-06 17:44 | 47.17398 | 27.62187 | 373 ft | 2 kts | 319° |
| 2026-05-06 17:44 | 47.17394 | 27.62148 | 373 ft | 7 kts | 245° |
| 2026-05-06 17:45 | 47.17374 | 27.62100 | 374 ft | 3 kts | 238° |
| 2026-05-06 17:45 | 47.17371 | 27.62094 | 374 ft | 0 kts | 238° |